11°C Temp
8°C Dewpoint
82% Humidity
Temperature
0 KM/H
MPH
KTS
Calm
Due North

Wind Speed
Partly Cloudy
Conditions
Barometer 1003.92 (hPa) - 29.65 (in)
Visibility 6.2 (mi) - 10.0 (km)

Current Conditions
LGEL
Location Elefsis 77 km  (47.8 mi) from Sykia
Metar :LGEL 130750Z 00000KT 9999 FEW018 SCT030 BKN070 11/08 Q1004
Friday 13 Dec 09:50

Airport
https://www.checkwx.com/
  Metar Aviation API Data Provided by https://www.checkwx.com/ PHP scripts by weather34.com ©2019